createdAt,value
2022-10-10T00:00:50.151Z,95135.97
2022-10-10T00:03:19.178Z,95135.72
2022-10-10T00:05:47.785Z,95136.88
2022-10-10T00:08:15.765Z,95139.81
2022-10-10T00:10:43.648Z,95144.72
2022-10-10T00:13:11.580Z,95146.03
2022-10-10T00:15:42.231Z,95151.69
2022-10-10T00:18:11.664Z,95149.78
2022-10-10T00:20:39.640Z,95145.38
2022-10-10T00:23:08.125Z,95141.00
2022-10-10T00:25:36.136Z,95133.22
2022-10-10T00:28:05.251Z,95136.09
2022-10-10T00:30:33.810Z,95133.19
2022-10-10T00:33:03.066Z,95139.69
2022-10-10T00:35:30.956Z,95141.31
2022-10-10T00:37:58.943Z,95138.91
2022-10-10T00:40:27.613Z,95139.72
2022-10-10T00:42:55.545Z,95139.38
2022-10-10T00:45:27.980Z,95141.69
2022-10-10T00:48:01.945Z,95137.50
2022-10-10T00:50:34.521Z,95135.72
2022-10-10T00:53:04.580Z,95136.09
2022-10-10T00:55:32.524Z,95135.56
2022-10-10T00:58:00.774Z,95138.97
2022-10-10T01:00:28.689Z,95140.16
2022-10-10T01:02:56.548Z,95145.00
2022-10-10T01:05:25.269Z,95128.72
2022-10-10T01:07:54.830Z,95141.94
2022-10-10T01:10:24.768Z,95139.97
2022-10-10T01:13:09.016Z,95137.88
2022-10-10T01:15:48.808Z,95134.63
2022-10-10T01:18:26.505Z,95135.59
2022-10-10T01:21:01.967Z,95137.56
2022-10-10T01:23:46.464Z,95141.50
2022-10-10T01:26:37.049Z,95141.81
2022-10-10T01:29:11.455Z,95134.44
2022-10-10T01:31:43.370Z,95138.72
2022-10-10T01:34:20.402Z,95141.31
2022-10-10T01:36:57.840Z,95146.72
2022-10-10T01:39:36.865Z,95148.66
2022-10-10T01:42:11.553Z,95141.53
2022-10-10T01:44:45.117Z,95143.66
2022-10-10T01:47:13.528Z,95133.41
2022-10-10T01:49:44.073Z,95127.72
2022-10-10T01:52:26.520Z,95133.41
2022-10-10T01:55:04.929Z,95124.63
2022-10-10T01:57:42.287Z,95131.28
2022-10-10T02:00:13.782Z,95137.63
2022-10-10T02:02:49.653Z,95133.41
2022-10-10T02:05:25.675Z,95144.63
2022-10-10T02:07:58.463Z,95141.06
2022-10-10T02:10:32.082Z,95140.56
2022-10-10T02:13:02.983Z,95138.94
2022-10-10T02:15:38.950Z,95144.31
2022-10-10T02:18:11.356Z,95141.03
2022-10-10T02:20:39.426Z,95143.63
2022-10-10T02:23:09.375Z,95148.84
2022-10-10T02:25:41.096Z,95145.09
2022-10-10T02:28:14.670Z,95145.41
2022-10-10T02:30:47.247Z,95153.22
2022-10-10T02:33:20.614Z,95144.94
2022-10-10T02:35:51.926Z,95144.44
2022-10-10T02:38:21.266Z,95152.25
2022-10-10T02:40:50.719Z,95148.50
2022-10-10T02:43:19.577Z,95150.97
2022-10-10T02:45:50.204Z,95152.88
2022-10-10T02:48:18.432Z,95147.38
2022-10-10T02:50:46.547Z,95146.72
2022-10-10T02:53:14.440Z,95140.06
2022-10-10T02:55:42.336Z,95145.91
2022-10-10T02:58:10.253Z,95142.47
2022-10-10T03:00:38.150Z,95138.91
2022-10-10T03:03:07.634Z,95147.38
2022-10-10T03:05:35.506Z,95145.59
2022-10-10T03:08:05.911Z,95145.75
2022-10-10T03:10:37.208Z,95146.88
2022-10-10T03:13:05.127Z,95144.28
2022-10-10T03:15:33.236Z,95150.47
2022-10-10T03:18:01.436Z,95153.38
2022-10-10T03:20:30.744Z,95160.69
2022-10-10T03:22:58.654Z,95157.28
2022-10-10T03:25:26.555Z,95170.13
2022-10-10T03:27:54.451Z,95157.75
2022-10-10T03:30:22.471Z,95163.63
2022-10-10T03:32:50.589Z,95158.41
2022-10-10T03:35:18.767Z,95171.75
2022-10-10T03:37:48.044Z,95169.00
2022-10-10T03:40:16.000Z,95175.13
2022-10-10T03:42:43.941Z,95162.28
2022-10-10T03:45:12.052Z,95170.56
2022-10-10T03:47:40.172Z,95169.25
2022-10-10T03:50:09.000Z,95163.03
2022-10-10T03:52:37.108Z,95174.66
2022-10-10T03:55:07.566Z,95160.72
2022-10-10T03:57:35.508Z,95166.38
2022-10-10T04:00:03.548Z,95168.31
2022-10-10T04:02:31.544Z,95164.06
2022-10-10T04:04:59.444Z,95160.97
2022-10-10T04:07:28.308Z,95165.53
2022-10-10T04:09:56.467Z,95170.91
2022-10-10T04:12:25.770Z,95152.47
2022-10-10T04:14:53.739Z,95173.50
2022-10-10T04:17:21.769Z,95169.22
2022-10-10T04:19:49.755Z,95172.13
2022-10-10T04:22:17.697Z,95170.50
2022-10-10T04:24:45.770Z,95171.00
2022-10-10T04:27:13.732Z,95157.16
2022-10-10T04:29:43.227Z,95167.91
2022-10-10T04:32:11.144Z,95164.84
2022-10-10T04:34:39.078Z,95161.91
2022-10-10T04:37:07.017Z,95167.91
2022-10-10T04:39:35.020Z,95167.91
2022-10-10T04:42:03.095Z,95167.56
2022-10-10T04:44:31.251Z,95174.56
2022-10-10T04:47:00.664Z,95179.66
2022-10-10T04:49:28.745Z,95181.28
2022-10-10T04:51:56.689Z,95174.13
2022-10-10T04:54:24.661Z,95187.63
2022-10-10T04:56:52.616Z,95177.56
2022-10-10T04:59:20.509Z,95177.25
2022-10-10T05:01:48.452Z,95183.03
2022-10-10T05:04:17.793Z,95183.31
2022-10-10T05:06:45.786Z,95184.94
2022-10-10T05:09:13.927Z,95188.28
2022-10-10T05:11:41.891Z,95200.47
2022-10-10T05:14:09.868Z,95197.25
2022-10-10T05:16:38.702Z,95179.75
2022-10-10T05:19:06.836Z,95194.38
2022-10-10T05:21:36.341Z,95201.63
2022-10-10T05:24:04.499Z,95191.03
2022-10-10T05:26:32.401Z,95197.69
2022-10-10T05:29:01.662Z,95198.03
2022-10-10T05:31:29.942Z,95204.59
2022-10-10T05:33:57.851Z,95193.50
2022-10-10T05:36:25.884Z,95217.06
2022-10-10T05:38:55.316Z,95224.09
2022-10-10T05:41:23.366Z,95216.66
2022-10-10T05:43:51.344Z,95211.97
2022-10-10T05:46:20.398Z,95215.53
2022-10-10T05:48:48.603Z,95208.56
2022-10-10T05:51:16.546Z,95200.59
2022-10-10T05:53:44.473Z,95205.19
2022-10-10T05:56:15.480Z,95217.22
2022-10-10T05:58:43.937Z,95218.91
2022-10-10T06:01:12.179Z,95217.09
2022-10-10T06:03:40.178Z,95224.59
2022-10-10T06:06:08.844Z,95236.50
2022-10-10T06:08:37.027Z,95234.38
2022-10-10T06:11:08.055Z,95237.31
2022-10-10T06:13:39.398Z,95237.19
2022-10-10T06:16:08.171Z,95248.28
2022-10-10T06:18:36.210Z,95243.06
2022-10-10T06:21:06.679Z,95238.84
2022-10-10T06:23:35.570Z,95244.69
2022-10-10T06:26:04.371Z,95259.97
2022-10-10T06:28:32.478Z,95260.63
2022-10-10T06:31:03.462Z,95254.28
2022-10-10T06:33:31.481Z,95261.44
2022-10-10T06:35:59.507Z,95267.41
2022-10-10T06:38:28.489Z,95268.53
2022-10-10T06:41:00.310Z,95269.00
2022-10-10T06:43:28.490Z,95275.19
2022-10-10T06:45:56.458Z,95280.16
2022-10-10T06:48:26.225Z,95284.72
2022-10-10T06:50:58.812Z,95285.50
2022-10-10T06:53:27.777Z,95280.16
2022-10-10T06:55:56.384Z,95290.75
2022-10-10T06:58:26.110Z,95296.75
2022-10-10T07:00:55.002Z,95300.75
2022-10-10T07:03:23.428Z,95298.25
2022-10-10T07:05:54.521Z,95299.72
2022-10-10T07:08:23.310Z,95305.63
2022-10-10T07:10:51.305Z,95311.25
2022-10-10T07:13:19.897Z,95303.69
2022-10-10T07:15:48.212Z,95317.66
2022-10-10T07:18:20.130Z,95314.31
2022-10-10T07:20:48.216Z,95312.19
2022-10-10T07:23:19.007Z,95302.25
2022-10-10T07:25:47.177Z,95305.72
2022-10-10T07:28:15.216Z,95303.22
2022-10-10T07:30:44.298Z,95311.81
2022-10-10T07:33:12.833Z,95316.94
2022-10-10T07:35:41.807Z,95310.69
2022-10-10T07:38:11.824Z,95309.88
2022-10-10T07:40:42.475Z,95314.28
2022-10-10T07:43:10.447Z,95313.31
2022-10-10T07:45:38.753Z,95306.66
2022-10-10T07:48:06.947Z,95305.31
2022-10-10T07:50:35.081Z,95313.34
2022-10-10T07:53:03.306Z,95303.66
2022-10-10T07:55:31.232Z,95316.41
2022-10-10T07:58:03.001Z,95312.16
2022-10-10T08:00:31.419Z,95321.06
2022-10-10T08:02:59.415Z,95304.75
2022-10-10T08:05:27.568Z,95311.22
2022-10-10T08:07:55.601Z,95317.59
2022-10-10T08:10:23.650Z,95316.75
2022-10-10T08:12:51.749Z,95294.41
2022-10-10T08:15:22.211Z,95313.31
2022-10-10T08:17:50.402Z,95316.22
2022-10-10T08:20:18.567Z,95306.59
2022-10-10T08:22:46.567Z,95313.41
2022-10-10T08:25:14.588Z,95325.41
2022-10-10T08:27:42.636Z,95321.06
2022-10-10T08:30:11.345Z,95307.84
2022-10-10T08:32:40.710Z,95318.47
2022-10-10T08:35:09.122Z,95318.28
2022-10-10T08:37:37.600Z,95322.59
2022-10-10T08:40:06.536Z,95324.88
2022-10-10T08:42:43.705Z,95321.69
2022-10-10T08:45:19.492Z,95327.78
2022-10-10T08:47:52.594Z,95339.50
2022-10-10T08:50:24.930Z,95339.13
2022-10-10T08:52:58.274Z,95343.78
2022-10-10T08:55:33.182Z,95346.06
2022-10-10T08:58:06.794Z,95356.00
2022-10-10T09:00:40.995Z,95360.66
2022-10-10T09:03:21.597Z,95364.91
2022-10-10T09:06:05.286Z,95376.84
2022-10-10T09:08:46.808Z,95364.50
2022-10-10T09:11:30.019Z,95377.06
2022-10-10T09:14:12.994Z,95377.25
2022-10-10T09:16:48.255Z,95380.28
2022-10-10T09:19:32.723Z,95383.72
2022-10-10T09:22:06.178Z,95384.09
2022-10-10T09:24:42.659Z,95383.09
2022-10-10T09:27:15.304Z,95395.66
2022-10-10T09:29:49.046Z,95390.00
2022-10-10T09:32:22.056Z,95393.63
2022-10-10T09:34:56.280Z,95400.28
2022-10-10T09:37:46.285Z,95398.47
2022-10-10T09:40:23.764Z,95396.03
2022-10-10T09:42:52.389Z,95399.25
2022-10-10T09:45:21.994Z,95399.69
2022-10-10T09:47:54.056Z,95393.59
2022-10-10T09:50:24.079Z,95399.69
2022-10-10T09:52:53.253Z,95398.28
2022-10-10T09:55:27.980Z,95380.25
2022-10-10T09:57:58.886Z,95396.66
2022-10-10T10:00:33.778Z,95391.78
2022-10-10T10:03:13.253Z,95398.03
2022-10-10T10:05:45.357Z,95391.16
2022-10-10T10:08:37.562Z,95388.53
2022-10-10T10:11:06.411Z,95388.50
2022-10-10T10:13:36.384Z,95378.34
2022-10-10T10:16:08.041Z,95377.78
2022-10-10T10:18:41.705Z,95380.56
2022-10-10T10:21:17.714Z,95376.84
2022-10-10T10:23:52.081Z,95370.31
2022-10-10T10:26:23.651Z,95377.19
2022-10-10T10:28:53.139Z,95375.34
2022-10-10T10:31:32.140Z,95378.72
2022-10-10T10:34:11.646Z,95379.31
2022-10-10T10:36:51.898Z,95372.81
2022-10-10T10:39:34.875Z,95358.88
2022-10-10T10:42:11.804Z,95364.13
2022-10-10T10:44:44.685Z,95366.06
2022-10-10T10:47:28.034Z,95355.19
2022-10-10T10:50:08.496Z,95364.25
2022-10-10T10:52:52.250Z,95361.09
2022-10-10T10:55:30.687Z,95370.06
2022-10-10T11:01:38.735Z,95360.13
2022-10-10T11:05:16.047Z,95361.31
2022-10-10T11:07:20.466Z,95335.38
2022-10-10T11:09:56.507Z,95326.28
2022-10-10T11:12:41.079Z,95330.28
2022-10-10T11:15:18.121Z,95324.03
2022-10-10T11:17:51.521Z,95326.84
2022-10-10T11:20:26.972Z,95316.34
2022-10-10T11:23:05.269Z,95323.81
2022-10-10T11:25:44.223Z,95332.13
2022-10-10T11:28:17.493Z,95326.91
2022-10-10T11:30:50.893Z,95332.19
2022-10-10T11:33:24.628Z,95323.69
2022-10-10T11:35:57.133Z,95318.44
2022-10-10T11:38:32.261Z,95303.44
2022-10-10T11:41:07.750Z,95311.88
2022-10-10T11:43:44.236Z,95311.25
2022-10-10T11:46:25.890Z,95294.97
2022-10-10T11:49:01.545Z,95301.09
2022-10-10T11:51:39.430Z,95298.44
2022-10-10T11:54:15.218Z,95291.13
2022-10-10T11:56:47.606Z,95289.84
2022-10-10T11:59:24.084Z,95284.09
2022-10-10T12:04:36.427Z,95276.69
2022-10-10T12:07:08.535Z,95272.69
2022-10-10T12:09:41.387Z,95272.38
2022-10-10T12:12:15.865Z,95278.50
2022-10-10T12:14:54.057Z,95277.44
2022-10-10T12:17:25.973Z,95281.44
2022-10-10T12:19:54.284Z,95269.25
2022-10-10T12:22:28.621Z,95260.38
2022-10-10T12:25:33.141Z,95256.22
2022-10-10T12:28:23.612Z,95258.38
2022-10-10T12:31:20.161Z,95247.25
2022-10-10T12:34:16.561Z,95246.84
2022-10-10T12:37:18.519Z,95249.47
2022-10-10T12:40:19.080Z,95254.88
2022-10-10T12:43:22.318Z,95251.38
2022-10-10T12:46:09.316Z,95246.91
2022-10-10T12:48:37.961Z,95238.28
2022-10-10T12:51:06.639Z,95246.75
2022-10-10T12:53:35.667Z,95236.78
2022-10-10T12:56:04.702Z,95246.88
2022-10-10T12:58:38.541Z,95240.25
2022-10-10T13:01:20.784Z,95235.94
2022-10-10T13:03:50.230Z,95244.94
2022-10-10T13:06:27.875Z,95246.47
2022-10-10T13:08:57.069Z,95241.56
2022-10-10T13:11:25.018Z,95234.81
2022-10-10T13:13:56.271Z,95240.16
2022-10-10T13:16:28.733Z,95241.97
2022-10-10T13:19:01.442Z,95243.19
2022-10-10T13:21:32.390Z,95241.06
2022-10-10T13:24:03.814Z,95238.44
2022-10-10T13:26:35.653Z,95237.63
2022-10-10T13:29:19.539Z,95233.94
2022-10-10T13:31:48.133Z,95234.63
2022-10-10T13:34:24.877Z,95237.97
2022-10-10T13:36:56.911Z,95240.31
2022-10-10T13:39:25.695Z,95227.44
2022-10-10T13:41:54.957Z,95239.59
2022-10-10T13:44:26.809Z,95235.69
2022-10-10T13:46:54.766Z,95237.44
2022-10-10T13:49:26.010Z,95229.13
2022-10-10T13:52:05.955Z,95239.88
2022-10-10T13:54:45.590Z,95233.53
2022-10-10T13:57:17.632Z,95228.41
2022-10-10T13:59:51.571Z,95237.06
2022-10-10T14:02:25.338Z,95230.69
2022-10-10T14:04:55.301Z,95236.13
2022-10-10T14:07:25.366Z,95236.09
2022-10-10T14:09:56.986Z,95239.03
2022-10-10T14:12:29.814Z,95233.97
2022-10-10T14:15:00.675Z,95220.03
2022-10-10T14:17:30.236Z,95229.84
2022-10-10T14:19:58.511Z,95231.22
2022-10-10T14:22:26.860Z,95230.41
2022-10-10T14:24:54.977Z,95229.16
2022-10-10T14:27:26.250Z,95224.31
2022-10-10T14:29:55.918Z,95211.47
2022-10-10T14:32:26.977Z,95215.88
2022-10-10T14:34:55.009Z,95218.97
2022-10-10T14:37:25.858Z,95227.34
2022-10-10T14:39:54.785Z,95217.03
2022-10-10T14:42:24.118Z,95220.44
2022-10-10T14:44:52.459Z,95211.75
2022-10-10T14:47:22.557Z,95218.22
2022-10-10T14:49:53.481Z,95223.38
2022-10-10T14:52:21.680Z,95215.09
2022-10-10T14:54:49.647Z,95216.56
2022-10-10T14:57:22.383Z,95213.56
2022-10-10T14:59:50.476Z,95213.22
2022-10-10T15:02:20.718Z,95204.81
2022-10-10T15:04:48.977Z,95209.31
2022-10-10T15:07:19.666Z,95215.88
2022-10-10T15:10:31.728Z,95202.63
2022-10-10T15:12:39.515Z,95213.84
2022-10-10T15:15:09.278Z,95216.47
2022-10-10T15:17:37.325Z,95214.50
2022-10-10T15:20:07.243Z,95224.84
2022-10-10T15:22:37.279Z,95218.19
2022-10-10T15:25:06.026Z,95214.59
2022-10-10T15:27:34.103Z,95215.81
2022-10-10T15:30:02.256Z,95207.75
2022-10-10T15:32:31.130Z,95204.72
2022-10-10T15:34:59.633Z,95214.91
2022-10-10T15:37:28.463Z,95197.50
2022-10-10T15:39:58.010Z,95212.13
2022-10-10T15:42:25.989Z,95215.97
2022-10-10T15:44:54.079Z,95208.44
2022-10-10T15:47:22.303Z,95201.75
2022-10-10T15:49:50.662Z,95220.16
2022-10-10T15:52:18.946Z,95217.75
2022-10-10T15:54:49.808Z,95213.09
2022-10-10T15:57:20.209Z,95207.00
2022-10-10T15:59:48.426Z,95215.88
2022-10-10T16:02:17.019Z,95213.22
2022-10-10T16:04:45.779Z,95211.41
2022-10-10T16:07:31.706Z,95212.78
2022-10-10T16:10:01.322Z,95221.06
2022-10-10T16:12:31.225Z,95225.88
2022-10-10T16:15:03.377Z,95225.47
2022-10-10T16:17:34.150Z,95224.00
2022-10-10T16:20:02.110Z,95229.84
2022-10-10T16:22:30.092Z,95227.41
2022-10-10T16:27:50.239Z,95215.94
2022-10-10T16:30:19.951Z,95232.94
2022-10-10T16:32:48.131Z,95214.69
2022-10-10T16:35:16.172Z,95233.28
2022-10-10T16:37:44.537Z,95226.81
2022-10-10T16:40:13.136Z,95236.84
2022-10-10T16:42:41.349Z,95236.25
2022-10-10T16:45:43.853Z,95234.81
2022-10-10T16:48:13.271Z,95235.78
2022-10-10T16:50:42.177Z,95241.94
2022-10-10T16:53:11.372Z,95237.31
2022-10-10T16:55:43.291Z,95241.09
2022-10-10T16:58:11.425Z,95239.09
2022-10-10T17:00:44.001Z,95233.72
2022-10-10T17:03:12.324Z,95232.72
2022-10-10T17:05:40.350Z,95240.03
2022-10-10T17:08:08.333Z,95231.09
2022-10-10T17:10:36.325Z,95234.16
2022-10-10T17:13:04.920Z,95231.34
2022-10-10T17:15:33.028Z,95235.56
2022-10-10T17:18:05.541Z,95243.41
2022-10-10T17:20:35.768Z,95237.53
2022-10-10T17:23:03.863Z,95242.97
2022-10-10T17:25:32.121Z,95238.41
2022-10-10T17:28:00.288Z,95239.84
2022-10-10T17:30:28.327Z,95241.34
2022-10-10T17:32:56.401Z,95247.66
2022-10-10T17:35:25.769Z,95252.47
2022-10-10T17:37:53.807Z,95253.94
2022-10-10T17:40:23.763Z,95253.50
2022-10-10T17:42:51.734Z,95258.94
2022-10-10T17:45:19.888Z,95256.25
2022-10-10T17:47:47.951Z,95256.31
2022-10-10T17:50:16.108Z,95247.81
2022-10-10T17:52:45.883Z,95250.69
2022-10-10T17:55:13.939Z,95242.72
2022-10-10T17:57:45.662Z,95247.38
2022-10-10T18:00:16.735Z,95250.00
2022-10-10T18:02:44.783Z,95241.97
2022-10-10T18:05:12.948Z,95235.13
2022-10-10T18:07:42.142Z,95256.25
2022-10-10T18:10:11.785Z,95250.19
2022-10-10T18:12:40.038Z,95260.47
2022-10-10T18:15:09.782Z,95252.38
2022-10-10T18:17:37.924Z,95242.81
2022-10-10T18:20:06.524Z,95256.16
2022-10-10T18:22:34.508Z,95252.13
2022-10-10T18:25:02.875Z,95233.16
2022-10-10T18:27:32.274Z,95243.41
2022-10-10T18:30:00.348Z,95233.91
2022-10-10T18:32:28.429Z,95235.53
2022-10-10T18:34:56.910Z,95229.22
2022-10-10T18:37:25.170Z,95225.22
2022-10-10T18:39:53.177Z,95245.81
2022-10-10T18:42:21.551Z,95250.69
2022-10-10T18:44:53.695Z,95235.09
2022-10-10T18:47:24.274Z,95243.06
2022-10-10T18:49:52.945Z,95238.66
2022-10-10T18:52:21.333Z,95243.28
2022-10-10T18:54:50.653Z,95251.38
2022-10-10T18:57:18.826Z,95242.72
2022-10-10T18:59:46.891Z,95240.53
2022-10-10T19:02:16.345Z,95227.69
2022-10-10T19:04:45.241Z,95236.41
2022-10-10T19:07:13.239Z,95233.78
2022-10-10T19:09:41.299Z,95246.06
2022-10-10T19:12:09.356Z,95253.41
2022-10-10T19:14:37.552Z,95249.09
2022-10-10T19:17:05.690Z,95236.72
2022-10-10T19:19:36.892Z,95241.97
2022-10-10T19:22:04.853Z,95230.41
2022-10-10T19:24:33.041Z,95240.88
2022-10-10T19:27:01.245Z,95247.31
2022-10-10T19:29:29.644Z,95249.66
2022-10-10T19:31:57.740Z,95245.41
2022-10-10T19:34:25.830Z,95236.06
2022-10-10T19:36:55.215Z,95237.31
2022-10-10T19:39:23.208Z,95239.31
2022-10-10T19:41:51.671Z,95224.69
2022-10-10T19:44:20.075Z,95239.47
2022-10-10T19:46:48.508Z,95239.91
2022-10-10T19:49:21.014Z,95236.44
2022-10-10T19:51:49.493Z,95235.59
2022-10-10T19:54:22.030Z,95232.91
2022-10-10T19:56:51.116Z,95231.47
2022-10-10T19:59:19.779Z,95229.56
2022-10-10T20:01:48.539Z,95217.22
2022-10-10T20:04:16.959Z,95218.28
2022-10-10T20:06:44.955Z,95225.53
2022-10-10T20:09:13.220Z,95229.84
2022-10-10T20:11:42.598Z,95217.50
2022-10-10T20:14:11.378Z,95221.19
2022-10-10T20:16:39.546Z,95223.81
2022-10-10T20:19:07.628Z,95219.84
2022-10-10T20:21:35.921Z,95212.06
2022-10-10T20:24:07.420Z,95226.06
2022-10-10T20:26:36.383Z,95223.44
2022-10-10T20:29:06.910Z,95218.00
2022-10-10T20:31:37.462Z,95212.44
2022-10-10T20:34:08.521Z,95223.91
2022-10-10T20:36:37.594Z,95211.94
2022-10-10T20:39:08.102Z,95223.19
2022-10-10T20:41:38.454Z,95226.44
2022-10-10T20:44:09.801Z,95220.03
2022-10-10T20:46:40.473Z,95232.19
2022-10-10T20:49:12.622Z,95228.78
2022-10-10T20:51:40.945Z,95230.06
2022-10-10T20:54:09.420Z,95228.78
2022-10-10T20:56:37.473Z,95232.56
2022-10-10T20:59:07.430Z,95228.97
2022-10-10T21:01:35.839Z,95231.31
2022-10-10T21:04:04.275Z,95228.13
2022-10-10T21:06:34.442Z,95226.34
2022-10-10T21:09:05.545Z,95216.03
2022-10-10T21:11:33.831Z,95214.59
2022-10-10T21:14:02.876Z,95232.88
2022-10-10T21:16:34.298Z,95232.88
2022-10-10T21:19:02.949Z,95231.56
2022-10-10T21:21:32.760Z,95240.16
2022-10-10T21:24:00.997Z,95228.06
2022-10-10T21:26:30.505Z,95231.06
2022-10-10T21:28:59.239Z,95221.13
2022-10-10T21:31:29.914Z,95224.44
2022-10-10T21:34:02.221Z,95211.75
2022-10-10T21:36:31.311Z,95221.19
2022-10-10T21:39:00.544Z,95211.38
2022-10-10T21:41:29.159Z,95213.19
2022-10-10T21:43:59.821Z,95213.19
2022-10-10T21:46:35.564Z,95202.47
2022-10-10T21:49:07.911Z,95203.44
2022-10-10T21:51:38.030Z,95204.25
2022-10-10T21:54:07.359Z,95203.91
2022-10-10T21:56:35.786Z,95194.69
2022-10-10T21:59:04.492Z,95195.94
2022-10-10T22:01:33.417Z,95198.09
2022-10-10T22:04:02.602Z,95196.06
2022-10-10T22:06:33.062Z,95193.25
2022-10-10T22:09:02.340Z,95191.53
2022-10-10T22:11:32.360Z,95183.50
2022-10-10T22:14:02.485Z,95188.75
2022-10-10T22:16:31.372Z,95190.63
2022-10-10T22:18:59.931Z,95185.69
2022-10-10T22:21:31.623Z,95179.44
2022-10-10T22:24:02.657Z,95178.75
2022-10-10T22:26:31.660Z,95169.44
2022-10-10T22:28:59.809Z,95181.97
2022-10-10T22:31:29.281Z,95181.25
2022-10-10T22:33:57.922Z,95174.84
2022-10-10T22:36:25.862Z,95168.47
2022-10-10T22:38:53.856Z,95166.38
2022-10-10T22:41:23.297Z,95167.19
2022-10-10T22:43:51.337Z,95162.06
2022-10-10T22:46:19.433Z,95164.16
2022-10-10T22:48:47.601Z,95169.56
2022-10-10T22:51:18.137Z,95168.09
2022-10-10T22:53:47.574Z,95173.31
2022-10-10T22:56:19.200Z,95167.56
2022-10-10T22:58:51.532Z,95176.94
2022-10-10T23:01:21.560Z,95177.94
2022-10-10T23:03:49.755Z,95170.34
2022-10-10T23:06:17.840Z,95169.00
2022-10-10T23:08:45.912Z,95169.00
2022-10-10T23:11:13.863Z,95177.75
2022-10-10T23:13:41.817Z,95172.78
2022-10-10T23:16:12.187Z,95178.56
2022-10-10T23:18:40.180Z,95173.69
2022-10-10T23:21:08.054Z,95174.31
2022-10-10T23:23:35.990Z,95172.72
2022-10-10T23:26:07.023Z,95174.75
2022-10-10T23:28:35.633Z,95169.91
2022-10-10T23:31:05.969Z,95171.97
2022-10-10T23:33:37.106Z,95162.50
2022-10-10T23:36:08.721Z,95168.72
2022-10-10T23:38:37.398Z,95162.31
2022-10-10T23:41:05.483Z,95172.31
2022-10-10T23:43:33.537Z,95158.28
2022-10-10T23:46:02.013Z,95162.84
2022-10-10T23:48:30.303Z,95159.25
2022-10-10T23:50:59.699Z,95158.66
2022-10-10T23:53:27.707Z,95154.03
2022-10-10T23:55:55.968Z,95152.41
2022-10-10T23:58:23.980Z,95140.34
